Terminal Aerodrome Forecast
Issued by NWS Blacksburg, VA

Home | Current Version | Previous Version | Text Only | Print | Product List | Glossary On
Versions: 1 2 3 4 5 6 7 8 9 10 11 12 13 14 15 16 17 18 19 20 21 22 23 24 25 26 27 28 29 30 31 32 33 34 35 36 37 38
000
FTUS41 KRNK 291854 AAA
TAFLYH
TAF AMD
KLYH 291854Z 2919/3018 16006KT P6SM BKN080
     FM292000 17007KT P6SM VCTS BKN050CB
     FM300300 18003KT P6SM SCT050 BKN100
     FM300800 00000KT 2SM BR SCT120
     FM301300 20007KT P6SM SCT060=

USA.gov is the U.S. government's official web portal to all federal, state and local government web resources and services.